KCEZ

Details ICAO KCEZ (CEZ)
Name CORTEZ MUNI
Region United States
Timezone America/Denver (UTC-6.0)
Plans Departing 18
Arriving 9
Stats Elevation 5,918 ft / 1,804 m (AMSL)
Location 37.303003° -108.628042°
Runways 1
Magnetic Variation 9.602° E
Sunrise 2018-05-24 12:00:48 UTC / 2018-05-24 06:00:48 Local
Sunset 2018-05-25 02:24:50 UTC / 2018-05-24 20:24:50 Local
Advertisement - Login to hide

Runways

ID Width Length Bearing (true) Bearing (mag) Surface Threshold Offset Overrun Length
03 100 ft / 30 m 7,205 ft / 2,196 m 41.42° 31.82° Asphalt 0 ft / 0 m 0 ft / 0 m
21 100 ft / 30 m 7,205 ft / 2,196 m 221.43° 211.83° Asphalt 0 ft / 0 m 0 ft / 0 m

Map

Weather


0- 5 10 15 20 25 30 35+ Temperature / ° C

Clouds and Precipitation
Forecast for 2018-05-25 00:00 UTC. Updated 3 hours ago

Ground ~20,000 ft ~40,000 ft Winds

METAR

KCEZ 250153Z AUTO 30007KT 10SM CLR 25/M07 A3013 RMK AO2 SLP133 T02501067

TAF

Not found

Frequencies

Recorded 135.62 MHz ASOS
Unicom 122.80 MHz CTAF/UNICOM
Warning: Do not use this data for real-world aviation or navigation. No guarantee of current accuracy is given.